KFZG

Details ICAO KFZG (FZG)
Name FITZGERALD MUNI
Region United States
Timezone America/New_York (UTC-5.0)
Plans Departing 2
Arriving 0
Stats Elevation 365 ft / 111 m (AMSL)
Location 31.683937° -83.269969°
Runways 2
Magnetic Variation 5.603° W
Sunrise 2017-12-11 12:24:20 UTC / 2017-12-11 07:24:20 Local
Sunset 2017-12-11 22:31:27 UTC / 2017-12-11 17:31:27 Local
Advertisement - Login to hide

Runways

ID Width Length Bearing (true) Bearing (mag) Surface Threshold Offset Overrun Length
01 100 ft / 30 m 5,017 ft / 1,529 m 11.84° 17.44° Asphalt 0 ft / 0 m 0 ft / 0 m
15 300 ft / 91 m 3,405 ft / 1,038 m 140.71° 146.31° Grass 0 ft / 0 m 0 ft / 0 m
19 100 ft / 30 m 5,017 ft / 1,529 m 191.84° 197.44° Asphalt 0 ft / 0 m 0 ft / 0 m
33 300 ft / 91 m 3,405 ft / 1,038 m 320.72° 326.32° Grass 0 ft / 0 m 0 ft / 0 m

Approach Navaids

Runway Type Ident Frequency Range Bearing (true) Bearing (mag) Slope Elevation
01 Localiser IFQR 111.10 MHz 18 nm / 33 km 12.07° 17.67° - 365 ft / 111 m (AMSL)

Map

Weather


0- 5 10 15 20 25 30 35+ Temperature / ° C

Clouds and Precipitation
Forecast for 2017-12-12 00:00 UTC. Updated 2 hours ago

Ground ~20,000 ft ~40,000 ft Winds

METAR

KFZG 112315Z AUTO 21003KT 10SM CLR 11/05 A3012 RMK AO2 T01130046

TAF

Not found

Frequencies

Recorded 118.62 MHz AWOS 3
Unicom 123.00 MHz CTAF/UNICOM
Warning: Do not use this data for real-world aviation or navigation. No guarantee of current accuracy is given.